Time;durP1;ratioP1;P1;durP2;ratioP2;P2;SDS_P1;SDS_P2;PMS_P1;PMS_P2;Temp;Humidity;BMP_temperature;BMP_pressure;BME280_temperature;BME280_humidity;BME280_pressure;Samples;Min_cycle;Max_cycle;Signal;HPM_P1;HPM_P2
2021/06/12 00:00:37;;;;;;;12.78;8.80;;;;;;;12.29;97.20;99684.03;1731668;82;21101;-73
2021/06/12 00:03:05;;;;;;;10.85;8.68;;;;;;;12.27;97.25;99678.45;1732114;82;21158;-73
2021/06/12 00:05:32;;;;;;;10.15;6.42;;;;;;;12.25;97.23;99677.19;1668778;86;21039;-73
2021/06/12 00:07:59;;;;;;;11.40;8.68;;;;;;;12.18;97.12;99669.20;1731832;82;21074;-74
2021/06/12 00:10:34;;;;;;;9.88;7.50;;;;;;;12.23;97.77;99675.09;1731911;82;21086;-72
2021/06/12 00:12:59;;;;;;;11.80;7.83;;;;;;;12.19;97.45;99674.86;1726579;82;22221;-72
2021/06/12 00:15:27;;;;;;;19.42;8.85;;;;;;;12.17;97.48;99672.79;1719058;82;21066;-74
2021/06/12 00:17:55;;;;;;;10.25;8.00;;;;;;;12.17;98.10;99671.47;1718163;82;21118;-72
2021/06/12 00:20:28;;;;;;;15.32;9.73;;;;;;;12.16;97.97;99671.91;1717004;82;21363;-74
2021/06/12 00:22:56;;;;;;;11.80;8.08;;;;;;;12.17;98.42;99672.79;1704308;82;21030;-73
2021/06/12 00:25:26;;;;;;;9.75;7.65;;;;;;;12.14;98.28;99675.09;1704035;84;21088;-74
2021/06/12 00:27:56;;;;;;;12.50;9.65;;;;;;;12.13;98.22;99681.79;1704419;83;21050;-75
2021/06/12 00:30:24;;;;;;;7.35;5.92;;;;;;;12.12;98.60;99678.74;1712151;82;21089;-76
2021/06/12 00:32:52;;;;;;;12.75;9.38;;;;;;;12.10;98.42;99680.16;1733971;82;21133;-74
2021/06/12 00:35:20;;;;;;;14.80;10.28;;;;;;;12.09;98.45;99682.87;1733441;82;21195;-77
2021/06/12 00:37:47;;;;;;;11.08;9.05;;;;;;;12.07;98.42;99684.73;1733703;82;22017;-78
2021/06/12 00:40:15;;;;;;;15.85;10.05;;;;;;;12.05;98.17;99677.34;1728494;82;21340;-76
2021/06/12 00:42:42;;;;;;;14.65;9.15;;;;;;;12.01;97.98;99677.11;1704412;84;21042;-76
2021/06/12 00:45:13;;;;;;;13.30;8.88;;;;;;;11.95;97.91;99683.09;1704084;84;21069;-77
2021/06/12 00:47:40;;;;;;;;;;;;;;;11.90;97.86;99683.78;1706789;84;21101;-77
2021/06/12 00:50:09;;;;;;;9.63;8.00;;;;;;;11.86;97.95;99682.66;1711828;83;21140;-85
2021/06/12 00:52:38;;;;;;;17.02;9.33;;;;;;;11.82;98.00;99683.27;1716405;83;21540;-80
2021/06/12 00:55:06;;;;;;;11.97;8.73;;;;;;;11.82;98.58;99679.78;1717557;83;21100;-80
2021/06/12 00:57:34;;;;;;;13.00;8.58;;;;;;;11.82;98.93;99688.55;1717588;83;21053;-79
2021/06/12 01:00:01;;;;;;;14.75;9.58;;;;;;;11.82;98.84;99686.38;1722989;80;22396;-80
2021/06/12 01:02:28;;;;;;;11.80;8.78;;;;;;;11.81;98.96;99681.57;1723346;82;21129;-75
2021/06/12 01:04:54;;;;;;;13.48;9.00;;;;;;;11.78;98.80;99684.37;1717551;83;21524;-76
2021/06/12 01:07:21;;;;;;;13.98;9.30;;;;;;;11.76;98.70;99682.27;1721714;80;21027;-78
2021/06/12 01:09:48;;;;;;;7.62;6.25;;;;;;;11.72;98.64;99679.38;1735510;82;21106;-76
2021/06/12 01:12:36;;;;;;;12.93;9.40;;;;;;;11.71;98.60;99681.61;1735416;82;21059;-77
2021/06/12 01:15:06;;;;;;;10.93;8.40;;;;;;;11.72;98.90;99683.34;1735434;82;22078;-76
2021/06/12 01:17:57;;;;;;;11.38;8.38;;;;;;;11.68;98.82;99675.18;1735851;82;21057;-80
2021/06/12 01:21:04;;;;;;;13.98;9.85;;;;;;;11.65;98.71;99674.87;1735307;82;21597;-77
2021/06/12 01:23:58;;;;;;;13.50;8.88;;;;;;;11.62;98.72;99675.47;1735424;82;21895;-78
2021/06/12 01:27:09;;;;;;;11.45;8.10;;;;;;;11.57;98.77;99678.33;1735202;82;21088;-79
2021/06/12 01:30:05;;;;;;;11.28;7.95;;;;;;;11.53;98.73;99680.28;1735205;82;21513;-77
2021/06/12 01:32:38;;;;;;;14.23;9.95;;;;;;;11.50;98.86;99679.12;1717562;83;21021;-80
2021/06/12 01:35:11;;;;;;;15.58;8.68;;;;;;;11.55;99.90;99680.21;1717713;83;21125;-80
2021/06/12 01:37:39;;;;;;;11.70;7.58;;;;;;;11.54;99.85;99685.92;1717768;83;21026;-78
2021/06/12 01:40:08;;;;;;;11.50;9.45;;;;;;;11.52;99.45;99680.34;1717939;83;21065;-80
2021/06/12 01:42:36;;;;;;;5.00;4.05;;;;;;;11.51;99.53;99682.13;1739349;82;21592;-79
2021/06/12 01:45:05;;;;;;;10.50;8.68;;;;;;;11.50;99.58;99687.02;1747443;82;21572;-80
2021/06/12 01:47:32;;;;;;;12.43;9.25;;;;;;;11.52;99.96;99690.41;1747432;82;21033;-77
2021/06/12 01:50:01;;;;;;;10.30;6.65;;;;;;;11.52;99.99;99689.09;1747408;81;20998;-77
2021/06/12 01:52:29;;;;;;;12.68;8.95;;;;;;;11.51;99.90;99687.41;1746377;82;21085;-74
2021/06/12 01:54:57;;;;;;;12.05;8.93;;;;;;;11.52;100.00;99689.09;1679300;84;21193;-77
2021/06/12 01:57:25;;;;;;;14.40;7.97;;;;;;;11.51;99.93;99689.19;1745804;82;21544;-77
2021/06/12 01:59:52;;;;;;;11.40;9.13;;;;;;;11.49;99.84;99693.21;1745871;82;21069;-80
2021/06/12 02:02:19;;;;;;;12.93;8.38;;;;;;;11.50;99.82;99691.42;1653539;84;22004;-79
2021/06/12 02:04:47;;;;;;;11.88;9.50;;;;;;;11.47;99.55;99693.74;1718523;82;21057;-77
2021/06/12 02:07:14;;;;;;;14.95;9.20;;;;;;;11.47;99.54;99691.58;1678971;85;21526;-78
2021/06/12 02:09:41;;;;;;;8.53;6.05;;;;;;;11.48;99.78;99688.87;1718660;82;21080;-79
2021/06/12 02:12:08;;;;;;;16.32;8.48;;;;;;;11.48;99.57;99687.56;1745904;82;21069;-78
2021/06/12 02:14:35;;;;;;;6.42;5.15;;;;;;;11.50;100.00;99688.34;1745774;82;21094;-80
2021/06/12 02:17:02;;;;;;;13.15;9.00;;;;;;;11.51;99.83;99690.04;1745983;82;22102;-77
2021/06/12 02:19:29;;;;;;;14.20;9.00;;;;;;;11.54;100.00;99695.63;1745712;82;21990;-78
2021/06/12 02:21:56;;;;;;;14.60;9.05;;;;;;;11.55;99.96;99691.61;1745731;82;21108;-77
2021/06/12 02:24:24;;;;;;;17.85;9.08;;;;;;;11.53;99.76;99688.19;1747437;82;21104;-77
2021/06/12 02:26:52;;;;;;;7.85;6.20;;;;;;;11.55;99.83;99691.61;1719621;82;21598;-74
2021/06/12 02:29:19;;;;;;;8.73;6.00;;;;;;;11.57;99.95;99693.30;1720438;82;21037;-75
2021/06/12 02:31:52;;;;;;;12.28;8.88;;;;;;;11.64;100.00;99698.67;1722255;82;21136;-75
2021/06/12 02:34:19;;;;;;;9.28;7.95;;;;;;;11.69;100.00;99698.01;1716805;83;21603;-74
2021/06/12 02:36:46;;;;;;;12.90;9.18;;;;;;;11.74;100.00;99704.76;1717771;83;21120;-74
2021/06/12 02:39:14;;;;;;;14.55;9.28;;;;;;;11.82;100.00;99707.01;1717561;83;22185;-74
2021/06/12 02:41:41;;;;;;;14.25;9.15;;;;;;;11.86;100.00;99704.61;1730192;82;21136;-75
2021/06/12 02:44:08;;;;;;;12.78;9.73;;;;;;;11.91;100.00;99705.74;1747714;82;21541;-75
2021/06/12 02:46:37;;;;;;;12.37;8.60;;;;;;;11.94;99.92;99709.09;1747347;82;21072;-75
2021/06/12 02:49:07;;;;;;;12.07;9.13;;;;;;;12.02;99.86;99706.55;1719772;82;21029;-75
2021/06/12 02:51:37;;;;;;;23.83;9.60;;;;;;;12.12;99.91;99707.78;1747379;81;21069;-75
2021/06/12 02:54:04;;;;;;;10.55;7.03;;;;;;;12.21;99.88;99713.91;1747758;82;21117;-80
2021/06/12 02:56:33;;;;;;;12.55;9.38;;;;;;;12.29;99.85;99709.11;1747293;82;21454;-80
2021/06/12 02:59:03;;;;;;;10.43;8.43;;;;;;;12.44;100.00;99710.58;1742946;82;21061;-78
2021/06/12 03:01:31;;;;;;;6.72;6.03;;;;;;;12.56;100.00;99709.94;1735815;82;21061;-78
2021/06/12 03:03:59;;;;;;;13.48;8.23;;;;;;;12.69;99.85;99709.69;1747542;82;21547;-78
2021/06/12 03:06:27;;;;;;;9.55;7.70;;;;;;;12.84;99.95;99708.05;1747592;82;21025;-79
2021/06/12 03:08:54;;;;;;;15.05;8.73;;;;;;;12.94;99.29;99709.24;1739975;82;22386;-77
2021/06/12 03:11:23;;;;;;;11.50;9.35;;;;;;;13.08;98.76;99711.14;1718154;82;21088;-78
2021/06/12 03:13:51;;;;;;;11.60;8.55;;;;;;;13.19;98.96;99708.78;1719552;82;21181;-77
2021/06/12 03:16:18;;;;;;;14.10;9.50;;;;;;;13.35;98.47;99713.27;1712316;82;21127;-76
2021/06/12 03:18:47;;;;;;;10.70;8.40;;;;;;;13.50;97.98;99712.39;1733699;82;21025;-75
2021/06/12 03:21:19;;;;;;;10.85;8.20;;;;;;;13.62;97.76;99717.02;1725505;82;22356;-76
2021/06/12 03:23:47;;;;;;;14.05;8.58;;;;;;;13.79;97.09;99713.89;1724008;82;21084;-75
2021/06/12 03:26:14;;;;;;;12.65;8.80;;;;;;;13.97;97.02;99715.48;1725189;82;21022;-74
2021/06/12 03:28:43;;;;;;;11.53;8.50;;;;;;;14.16;96.50;99714.41;1717573;82;21540;-76
2021/06/12 03:31:13;;;;;;;13.00;8.30;;;;;;;14.35;96.08;99716.34;1728925;82;21564;-75
2021/06/12 03:33:40;;;;;;;7.80;7.00;;;;;;;14.54;95.58;99717.48;1737385;82;21195;-75
2021/06/12 03:36:08;;;;;;;10.53;8.03;;;;;;;14.75;94.69;99714.48;1725378;82;21092;-75
2021/06/12 03:38:35;;;;;;;11.93;8.03;;;;;;;14.94;93.82;99724.33;1721512;82;21714;-75
2021/06/12 03:41:04;;;;;;;9.73;7.80;;;;;;;15.12;93.16;99718.84;1717746;82;21090;-74
2021/06/12 03:43:34;;;;;;;;;;;;;;;15.34;92.95;99722.31;1725058;82;21077;-76
2021/06/12 03:46:03;;;;;;;6.53;5.72;;;;;;;15.59;92.74;99723.78;1717749;82;21170;-75
2021/06/12 03:48:29;;;;;;;8.05;7.03;;;;;;;15.85;92.04;99722.14;1718728;82;21072;-75
2021/06/12 03:50:56;;;;;;;8.65;6.70;;;;;;;16.11;90.84;99728.38;1713995;82;21083;-74
2021/06/12 03:53:30;;;;;;;8.30;6.83;;;;;;;16.38;89.91;99721.31;1718942;82;21500;-75
2021/06/12 03:55:54;;;;;;;7.62;6.28;;;;;;;16.55;89.00;99713.05;1703371;82;21101;-75
2021/06/12 03:58:21;;;;;;;8.40;6.30;;;;;;;16.92;88.31;99723.35;1704550;82;22122;-75
2021/06/12 04:00:48;;;;;;;8.23;6.90;;;;;;;17.23;87.21;99719.87;1730241;82;21078;-75
2021/06/12 04:04:59;;;;;;;13.32;6.20;;;;;;;17.80;85.00;99721.92;1792255;79;22829;-75
2021/06/12 04:07:27;;;;;;;11.48;5.85;;;;;;;18.05;83.52;99721.48;1756228;81;21587;-77
2021/06/12 04:09:54;;;;;;;10.80;5.50;;;;;;;18.33;82.12;99721.58;1755616;81;21789;-76
2021/06/12 04:12:21;;;;;;;8.43;5.67;;;;;;;18.58;81.12;99717.89;1755467;81;21061;-75
2021/06/12 04:14:49;;;;;;;6.17;4.87;;;;;;;18.84;79.88;99719.05;1715628;83;21116;-75
2021/06/12 04:17:16;;;;;;;8.00;6.00;;;;;;;19.10;78.26;99717.52;1679889;85;21003;-76
2021/06/12 04:19:43;;;;;;;11.05;6.90;;;;;;;19.34;76.41;99716.88;1680194;85;21097;-74
2021/06/12 04:22:11;;;;;;;12.00;6.17;;;;;;;19.59;75.58;99722.92;1686022;84;21911;-75
2021/06/12 04:24:38;;;;;;;13.58;7.03;;;;;;;19.84;74.58;99727.98;1678531;85;21139;-81
2021/06/12 04:27:06;;;;;;;9.48;5.60;;;;;;;20.07;71.70;99725.25;1678780;85;21128;-80
2021/06/12 04:29:34;;;;;;;8.45;4.90;;;;;;;20.26;71.63;99721.39;1683679;83;21109;-79
2021/06/12 04:32:02;;;;;;;6.37;4.72;;;;;;;20.47;70.32;99720.55;1647224;84;21201;-78
2021/06/12 04:34:29;;;;;;;8.65;4.10;;;;;;;20.69;68.08;99719.13;1645251;87;21148;-79
2021/06/12 04:36:56;;;;;;;5.10;4.10;;;;;;;20.88;68.02;99724.22;1684460;83;21129;-80
2021/06/12 04:39:23;;;;;;;5.28;4.50;;;;;;;21.09;67.58;99721.51;1685156;85;21093;-79
2021/06/12 04:41:51;;;;;;;6.35;3.98;;;;;;;21.36;66.39;99727.11;1685892;85;21084;-80
2021/06/12 04:44:17;;;;;;;5.95;4.58;;;;;;;21.62;65.79;99722.62;1685631;85;21117;-80
2021/06/12 04:46:44;;;;;;;6.33;3.22;;;;;;;21.88;64.39;99724.31;1685865;84;21843;-80
2021/06/12 04:49:12;;;;;;;3.50;2.72;;;;;;;22.12;63.87;99721.72;1685058;85;21089;-81
2021/06/12 04:51:39;;;;;;;4.67;3.35;;;;;;;22.25;62.05;99723.66;1672191;85;21242;-79
2021/06/12 04:54:06;;;;;;;4.58;2.95;;;;;;;22.40;61.13;99716.85;1693647;83;21052;-81
2021/06/12 04:56:34;;;;;;;4.42;3.37;;;;;;;22.52;60.57;99719.38;1691639;83;21055;-80
2021/06/12 04:59:01;;;;;;;6.20;3.47;;;;;;;22.73;60.41;99709.33;1690748;84;21143;-81
2021/06/12 05:01:27;;;;;;;3.85;3.37;;;;;;;22.93;59.62;99703.89;1689334;84;21068;-79
2021/06/12 05:03:54;;;;;;;3.52;3.22;;;;;;;23.10;57.98;99703.17;1689356;84;21073;-79
2021/06/12 05:06:22;;;;;;;5.42;3.52;;;;;;;23.23;56.55;99700.96;1691023;84;21068;-80
2021/06/12 05:08:50;;;;;;;3.83;3.08;;;;;;;23.37;56.81;99706.84;1692145;84;21052;-80
2021/06/12 05:11:18;;;;;;;4.85;3.50;;;;;;;23.54;56.44;99700.67;1665976;84;21767;-80
2021/06/12 05:13:46;;;;;;;3.90;3.30;;;;;;;23.79;56.19;99709.05;1691182;84;21032;-81
2021/06/12 05:16:14;;;;;;;6.10;3.87;;;;;;;23.95;55.40;99705.18;1690511;84;21116;-83
2021/06/12 05:18:44;;;;;;;4.37;3.67;;;;;;;24.13;53.88;99700.28;1691166;84;21542;-80
2021/06/12 05:21:14;;;;;;;4.40;3.22;;;;;;;24.27;53.11;99694.34;1664989;84;21123;-80
2021/06/12 05:23:41;;;;;;;4.85;3.27;;;;;;;24.41;53.12;99701.02;1663414;86;21729;-81
2021/06/12 05:26:09;;;;;;;4.53;3.08;;;;;;;24.52;52.48;99699.45;1690410;83;21127;-82
2021/06/12 05:28:37;;;;;;;3.60;3.10;;;;;;;24.65;52.14;99693.66;1662697;86;21091;-80
2021/06/12 05:31:04;;;;;;;3.15;2.85;;;;;;;24.89;51.45;99696.52;1689781;83;21116;-80
2021/06/12 05:33:33;;;;;;;2.22;2.02;;;;;;;25.14;50.54;99697.97;1689683;84;21067;-80
2021/06/12 05:36:00;;;;;;;8.98;3.35;;;;;;;25.28;50.05;99699.24;1676799;84;21122;-80
2021/06/12 05:38:27;;;;;;;7.40;3.10;;;;;;;25.44;49.42;99701.16;1669185;85;21556;-80
2021/06/12 05:40:55;;;;;;;3.83;3.00;;;;;;;25.52;48.43;99701.20;1654255;84;21039;-80
2021/06/12 05:43:23;;;;;;;4.70;3.05;;;;;;;25.51;47.75;99686.02;1678869;83;21044;-81
2021/06/12 05:45:51;;;;;;;3.22;2.37;;;;;;;25.55;48.15;99695.47;1666722;85;21129;-79
2021/06/12 05:48:18;;;;;;;3.25;2.92;;;;;;;25.64;48.07;99691.78;1680671;84;22243;-74
2021/06/12 05:50:46;;;;;;;2.92;2.55;;;;;;;25.82;47.82;99697.56;1685860;83;21564;-74
2021/06/12 05:53:13;;;;;;;6.28;2.70;;;;;;;26.11;47.14;99689.88;1685620;84;21082;-75
2021/06/12 05:55:40;;;;;;;3.27;2.65;;;;;;;26.33;46.56;99691.56;1688172;84;21065;-73
2021/06/12 05:58:08;;;;;;;6.12;2.92;;;;;;;26.49;46.17;99692.89;1689643;84;21075;-75
2021/06/12 06:00:36;;;;;;;4.55;2.65;;;;;;;26.74;45.94;99686.15;1688363;84;21127;-75
2021/06/12 06:03:03;;;;;;;4.20;2.67;;;;;;;26.95;44.70;99682.37;1688355;84;21247;-75
2021/06/12 06:05:30;;;;;;;3.02;2.45;;;;;;;27.00;44.21;99685.38;1671414;84;21551;-75
2021/06/12 06:07:58;;;;;;;24.32;4.92;;;;;;;27.04;44.15;99687.24;1710296;83;21034;-74
2021/06/12 06:10:25;;;;;;;5.75;2.80;;;;;;;27.09;43.19;99678.62;1708835;83;21072;-74
2021/06/12 06:12:52;;;;;;;28.47;4.60;;;;;;;27.11;43.12;99684.17;1687678;83;21066;-75
2021/06/12 06:15:20;;;;;;;17.50;4.55;;;;;;;27.31;42.82;99687.83;1698546;83;21077;-75
2021/06/12 06:17:47;;;;;;;3.50;2.52;;;;;;;27.57;41.96;99687.55;1676432;83;21054;-76
2021/06/12 06:20:15;;;;;;;5.75;2.50;;;;;;;27.61;41.92;99687.02;1666620;84;21082;-76
2021/06/12 06:22:42;;;;;;;5.67;2.72;;;;;;;27.57;41.92;99687.55;1650394;85;21029;-74
2021/06/12 06:25:12;;;;;;;3.52;2.20;;;;;;;27.67;41.87;99691.38;1711597;83;21283;-74
2021/06/12 06:27:39;;;;;;;4.72;2.17;;;;;;;27.87;40.88;99691.80;1712217;82;21071;-75
2021/06/12 06:30:08;;;;;;;3.42;2.55;;;;;;;28.05;40.72;99696.41;1712176;82;21148;-75
2021/06/12 06:32:35;;;;;;;5.85;2.50;;;;;;;28.08;40.81;99698.74;1677462;85;21619;-75
2021/06/12 06:35:02;;;;;;;3.45;2.70;;;;;;;28.04;40.68;99700.12;1672842;85;21552;-76
2021/06/12 06:37:40;;;;;;;3.98;2.95;;;;;;;28.00;41.04;99698.82;1673826;85;21269;-73
2021/06/12 06:40:23;;;;;;;7.55;3.12;;;;;;;27.98;41.10;99704.92;1676144;83;21091;-74
2021/06/12 06:42:50;;;;;;;4.05;3.12;;;;;;;28.23;40.38;99696.11;1651081;85;21020;-75
2021/06/12 06:45:17;;;;;;;3.50;2.40;;;;;;;28.45;40.23;99697.08;1712600;82;21481;-74
2021/06/12 06:47:44;;;;;;;6.08;3.25;;;;;;;28.55;39.26;99696.36;1714649;83;21114;-75
2021/06/12 06:50:13;;;;;;;8.18;3.58;;;;;;;28.57;37.98;99698.34;1701323;83;21558;-77
2021/06/12 06:52:40;;;;;;;6.25;2.72;;;;;;;28.41;39.42;99693.05;1711284;83;21114;-75
2021/06/12 06:55:09;;;;;;;2.77;2.52;;;;;;;28.28;39.27;99692.85;1712241;83;21020;-75
2021/06/12 06:57:37;;;;;;;5.58;2.87;;;;;;;27.88;39.64;99702.42;1712200;82;21094;-76
2021/06/12 07:00:07;;;;;;;5.90;3.30;;;;;;;27.63;39.66;99700.38;1711001;83;21083;-75
2021/06/12 07:02:34;;;;;;;27.42;4.10;;;;;;;27.58;40.57;99702.75;1697738;83;21139;-76
2021/06/12 07:05:01;;;;;;;5.80;3.12;;;;;;;27.68;39.41;99699.33;1712788;83;21042;-74
2021/06/12 07:07:29;;;;;;;6.72;2.90;;;;;;;27.88;39.60;99697.53;1702647;83;21059;-76
2021/06/12 07:09:56;;;;;;;8.65;3.27;;;;;;;28.16;38.80;99698.69;1703063;83;21088;-74
2021/06/12 07:12:25;;;;;;;3.55;3.00;;;;;;;28.45;38.45;99688.95;1715423;81;21110;-75
2021/06/12 07:14:52;;;;;;;3.62;2.95;;;;;;;28.72;38.88;99693.48;1718454;81;22054;-75
2021/06/12 07:17:19;;;;;;;7.92;3.70;;;;;;;28.85;38.07;99687.75;1719288;83;21594;-75
2021/06/12 07:19:50;;;;;;;8.13;3.52;;;;;;;28.93;38.48;99689.52;1718334;83;21067;-75
2021/06/12 07:22:17;;;;;;;4.17;3.30;;;;;;;29.02;38.29;99693.82;1704651;83;21074;-75
2021/06/12 07:24:44;;;;;;;6.97;3.60;;;;;;;29.17;36.86;99691.64;1721279;81;21127;-76
2021/06/12 07:27:13;;;;;;;4.40;3.40;;;;;;;29.21;37.55;99695.66;1711766;83;21204;-78
2021/06/12 07:29:40;;;;;;;6.40;3.12;;;;;;;29.17;37.53;99689.80;1712290;81;21748;-75
2021/06/12 07:32:08;;;;;;;3.65;3.35;;;;;;;29.07;37.34;99691.41;1704566;83;21214;-75
2021/06/12 07:34:35;;;;;;;4.92;3.30;;;;;;;29.09;38.84;99687.17;1705094;81;21141;-77
2021/06/12 07:37:02;;;;;;;5.67;3.80;;;;;;;29.37;37.66;99691.39;1717983;82;21053;-74
2021/06/12 07:39:29;;;;;;;4.05;3.72;;;;;;;29.55;38.05;99684.73;1715413;82;21515;-75
2021/06/12 07:41:56;;;;;;;4.25;3.77;;;;;;;29.55;38.21;99679.30;1699170;83;21036;-77
2021/06/12 07:44:23;;;;;;;4.00;3.60;;;;;;;29.33;37.64;99687.36;1707633;82;21096;-76
2021/06/12 07:46:50;;;;;;;4.28;3.52;;;;;;;29.06;38.70;99680.22;1706017;82;22099;-75
2021/06/12 07:49:18;;;;;;;3.58;3.27;;;;;;;28.67;38.57;99680.49;1712769;82;21041;-75
2021/06/12 07:51:46;;;;;;;6.30;3.80;;;;;;;28.24;38.05;99683.72;1715706;81;21159;-76
2021/06/12 07:54:13;;;;;;;4.95;3.65;;;;;;;28.11;39.74;99690.25;1680571;83;21101;-75
2021/06/12 07:56:40;;;;;;;12.60;3.98;;;;;;;28.18;39.48;99682.25;1720709;83;21122;-75
2021/06/12 07:59:07;;;;;;;6.33;2.52;;;;;;;28.42;39.66;99683.92;1720285;83;21048;-75
2021/06/12 08:01:34;;;;;;;5.17;2.10;;;;;;;28.74;36.37;99687.38;1719875;83;21060;-76
2021/06/12 08:04:02;;;;;;;3.33;1.95;;;;;;;29.06;34.48;99687.00;1706079;81;21138;-75
2021/06/12 08:06:30;;;;;;;8.55;3.25;;;;;;;29.29;34.93;99682.02;1713873;83;21090;-75
2021/06/12 08:08:58;;;;;;;6.15;2.80;;;;;;;29.43;34.56;99681.67;1711596;83;21563;-75
2021/06/12 08:11:25;;;;;;;6.60;2.60;;;;;;;29.62;35.56;99675.63;1675585;85;21046;-75
2021/06/12 08:13:52;;;;;;;14.03;3.25;;;;;;;29.87;35.04;99677.49;1718306;82;21080;-75
2021/06/12 08:16:19;;;;;;;3.58;2.30;;;;;;;30.16;33.85;99677.05;1712703;83;21113;-78
2021/06/12 08:18:47;;;;;;;4.08;2.22;;;;;;;30.29;31.51;99673.63;1718573;81;21058;-74
2021/06/12 08:21:14;;;;;;;6.65;2.30;;;;;;;30.29;31.03;99671.74;1717079;81;21462;-75
2021/06/12 08:23:41;;;;;;;2.85;1.92;;;;;;;30.49;32.62;99679.23;1713492;83;21124;-76
2021/06/12 08:26:08;;;;;;;4.17;2.20;;;;;;;30.76;31.92;99665.81;1714345;81;21120;-75
2021/06/12 08:28:35;;;;;;;3.12;2.00;;;;;;;31.11;31.86;99663.44;1710426;81;21823;-76
2021/06/12 08:31:07;;;;;;;4.12;2.17;;;;;;;31.02;30.50;99658.38;1711625;83;21661;-78
2021/06/12 08:33:33;;;;;;;7.37;1.98;;;;;;;30.49;31.56;99675.16;1718636;81;21118;-75
2021/06/12 08:36:00;;;;;;;7.55;1.82;;;;;;;29.94;31.60;99682.16;1709605;82;21105;-76
2021/06/12 08:38:27;;;;;;;3.67;1.82;;;;;;;29.64;32.62;99672.73;1718066;83;21079;-75
2021/06/12 08:40:55;;;;;;;5.33;2.17;;;;;;;29.59;32.06;99671.11;1676633;85;21194;-76
2021/06/12 08:43:26;;;;;;;2.50;2.08;;;;;;;29.78;32.62;99675.94;1666735;85;21034;-76
2021/06/12 08:45:55;;;;;;;3.30;2.00;;;;;;;30.08;31.58;99666.31;1667556;83;21147;-75
2021/06/12 08:48:24;;;;;;;6.12;1.87;;;;;;;30.41;31.22;99669.85;1715378;82;21071;-74
2021/06/12 08:50:53;;;;;;;2.47;1.62;;;;;;;30.68;32.14;99664.93;1720807;83;21130;-77
2021/06/12 08:53:20;;;;;;;3.92;1.95;;;;;;;30.78;30.33;99672.72;1719905;83;21106;-77
2021/06/12 08:55:48;;;;;;;3.10;1.82;;;;;;;30.73;29.59;99667.88;1716058;83;21077;-76
2021/06/12 08:58:15;;;;;;;4.42;1.80;;;;;;;30.77;29.02;99670.23;1668037;85;21081;-78
2021/06/12 09:00:42;;;;;;;31.05;5.00;;;;;;;30.79;29.13;99665.44;1717272;83;22149;-76
2021/06/12 09:03:27;;;;;;;3.62;1.90;;;;;;;30.95;28.13;99663.78;1706655;81;21071;-76
2021/06/12 09:05:59;;;;;;;2.00;1.80;;;;;;;31.10;28.32;99659.03;1716784;81;21140;-76
2021/06/12 09:08:35;;;;;;;3.92;2.10;;;;;;;31.14;28.78;99657.59;1684107;83;21060;-75
2021/06/12 09:11:15;;;;;;;5.12;2.00;;;;;;;31.05;29.20;99646.56;1683630;84;21522;-75
2021/06/12 09:13:53;;;;;;;2.90;1.72;;;;;;;31.15;29.08;99662.00;1689970;84;21038;-77
2021/06/12 09:16:38;;;;;;;4.90;1.80;;;;;;;31.21;29.24;99660.34;1665859;85;21087;-75
2021/06/12 09:19:12;;;;;;;2.45;1.80;;;;;;;31.19;28.29;99658.34;1663338;85;21843;-75
2021/06/12 09:21:50;;;;;;;2.83;1.70;;;;;;;31.17;28.24;99641.38;1662963;85;21047;-75
2021/06/12 09:24:35;;;;;;;3.70;2.12;;;;;;;31.03;27.65;99648.64;1671489;84;21046;-77
2021/06/12 09:27:06;;;;;;;5.42;1.82;;;;;;;31.17;28.46;99650.06;1652541;86;21073;-76
2021/06/12 09:29:45;;;;;;;3.05;1.80;;;;;;;31.33;28.51;99646.99;1651297;84;21100;-76
2021/06/12 09:32:21;;;;;;;3.72;2.10;;;;;;;31.39;28.11;99648.91;1687373;84;21120;-75
2021/06/12 09:34:55;;;;;;;2.10;1.90;;;;;;;31.09;28.73;99650.56;1690969;84;21975;-75
2021/06/12 09:37:28;;;;;;;2.35;1.85;;;;;;;31.10;28.59;99642.71;1673756;85;21038;-77
2021/06/12 09:40:13;;;;;;;2.33;1.82;;;;;;;31.49;28.11;99639.86;1670680;85;21078;-78
2021/06/12 09:42:50;;;;;;;3.80;1.70;;;;;;;31.49;28.11;99639.86;1691244;83;21394;-78
2021/06/12 09:45:33;;;;;;;7.00;2.42;;;;;;;31.37;28.08;99641.47;1682126;85;21497;-75
2021/06/12 09:48:17;;;;;;;5.78;1.90;;;;;;;31.30;28.01;99643.33;1663273;85;21064;-76
2021/06/12 09:50:47;;;;;;;4.37;1.62;;;;;;;31.15;27.29;99638.89;1681838;85;21126;-77
2021/06/12 09:53:37;;;;;;;3.35;2.20;;;;;;;31.08;27.64;99634.44;1677818;85;21031;-76
2021/06/12 09:55:56;;;;;;;3.42;1.85;;;;;;;30.84;27.88;99637.13;1690084;84;21057;-78
2021/06/12 09:58:29;;;;;;;5.20;1.98;;;;;;;30.44;28.19;99639.59;1644132;84;21154;-75
2021/06/12 10:00:56;;;;;;;2.02;1.75;;;;;;;30.23;28.38;99648.08;1691616;83;21586;-77
2021/06/12 10:03:32;;;;;;;2.45;1.65;;;;;;;30.30;28.96;99643.56;1651690;84;21075;-76
2021/06/12 10:06:24;;;;;;;3.25;1.87;;;;;;;30.60;27.15;99639.29;1633118;86;21065;-76
2021/06/12 10:08:53;;;;;;;4.65;1.95;;;;;;;30.74;27.82;99626.09;1725936;81;21108;-77
2021/06/12 10:11:25;;;;;;;5.50;1.87;;;;;;;30.93;27.13;99626.44;1720247;82;21070;-78
2021/06/12 10:13:52;;;;;;;2.83;2.02;;;;;;;31.02;27.01;99622.50;1732722;81;21068;-76
2021/06/12 10:16:21;;;;;;;5.03;2.40;;;;;;;30.99;27.14;99620.20;1732062;82;21214;-75
2021/06/12 10:18:52;;;;;;;2.25;1.90;;;;;;;31.04;27.55;99616.34;1732046;81;21025;-77
2021/06/12 10:21:19;;;;;;;8.60;2.40;;;;;;;31.29;27.25;99621.23;1718551;82;21113;-75
2021/06/12 10:23:48;;;;;;;1.90;1.70;;;;;;;31.41;26.66;99618.30;1677933;85;21109;-75
2021/06/12 10:26:17;;;;;;;2.00;1.80;;;;;;;31.52;26.10;99611.42;1677798;85;21090;-75
2021/06/12 10:28:44;;;;;;;2.00;1.72;;;;;;;31.66;25.89;99606.84;1676342;85;22253;-75
2021/06/12 10:31:21;;;;;;;16.87;2.40;;;;;;;31.78;26.60;99602.45;1676401;85;21069;-75
2021/06/12 10:33:52;;;;;;;3.67;1.80;;;;;;;32.00;26.23;99599.55;1695972;83;21072;-76
2021/06/12 10:36:22;;;;;;;;;;;;;;;32.11;25.60;99590.23;1707772;83;21108;-76
2021/06/12 10:38:51;;;;;;;;;;;;;;;32.11;26.06;99590.23;1703529;83;20212;-75
2021/06/12 10:41:27;;;;;;;2.72;2.10;;;;;;;32.21;26.27;99587.10;1699475;82;20202;-77
2021/06/12 10:44:02;;;;;;;3.25;1.80;;;;;;;32.51;25.44;99583.41;1692092;83;21097;-76
2021/06/12 10:46:33;;;;;;;2.10;1.70;;;;;;;32.79;25.71;99583.12;1648145;87;21090;-75
2021/06/12 10:49:05;;;;;;;3.98;1.85;;;;;;;32.94;25.27;99583.38;1682304;83;21162;-75
2021/06/12 10:51:37;;;;;;;3.50;2.00;;;;;;;33.09;25.16;99582.61;1694259;83;21061;-76
2021/06/12 10:54:26;;;;;;;4.70;1.85;;;;;;;33.20;25.38;99573.75;1671218;85;21021;-75
2021/06/12 10:57:17;;;;;;;2.70;2.10;;;;;;;33.19;24.85;99569.33;1694927;83;21069;-75
2021/06/12 10:59:51;;;;;;;2.27;2.02;;;;;;;33.16;25.57;99565.69;1661409;84;21084;-75
2021/06/12 11:02:40;;;;;;;2.17;1.75;;;;;;;33.23;25.13;99571.94;1678180;84;21526;-76
2021/06/12 11:05:07;;;;;;;2.65;1.80;;;;;;;33.15;24.88;99570.84;1698556;82;21591;-77
2021/06/12 11:07:39;;;;;;;4.78;1.72;;;;;;;33.23;24.15;99565.11;1669584;85;21060;-77
2021/06/12 11:10:18;;;;;;;3.25;1.77;;;;;;;33.15;24.98;99559.93;1630275;85;21167;-75
2021/06/12 11:12:49;;;;;;;3.00;2.03;;;;;;;32.91;24.33;99564.19;1705216;82;21202;-76
2021/06/12 11:15:27;;;;;;;2.85;2.05;;;;;;;32.79;24.95;99561.30;1706180;82;22235;-77
2021/06/12 11:18:17;;;;;;;3.97;2.40;;;;;;;32.75;24.90;99561.42;1701760;82;21598;-76
2021/06/12 11:20:47;;;;;;;6.35;2.70;;;;;;;32.64;24.61;99558.53;1701260;82;21073;-76
2021/06/12 11:23:23;;;;;;;3.15;2.10;;;;;;;32.65;25.94;99554.23;1704627;83;21022;-76
2021/06/12 11:25:55;;;;;;;2.70;2.05;;;;;;;32.78;25.98;99550.61;1670494;85;21131;-76
2021/06/12 11:28:29;;;;;;;2.95;1.80;;;;;;;32.85;25.71;99545.13;1668063;85;21150;-76
2021/06/12 11:31:34;;;;;;;6.62;2.12;;;;;;;32.98;25.36;99540.98;1670561;84;21075;-74
2021/06/12 11:34:18;;;;;;;3.33;2.10;;;;;;;33.09;25.51;99543.06;1694590;83;21085;-76
2021/06/12 11:36:48;;;;;;;2.98;1.80;;;;;;;33.01;24.65;99532.36;1670660;84;21079;-75
2021/06/12 11:39:15;;;;;;;6.12;2.12;;;;;;;32.89;24.58;99528.12;1700920;82;21103;-73
2021/06/12 11:41:42;;;;;;;2.22;2.02;;;;;;;32.84;25.71;99527.11;1688739;83;21220;-76
2021/06/12 11:44:09;;;;;;;3.35;1.80;;;;;;;32.76;25.94;99523.58;1709395;83;21045;-76
2021/06/12 11:46:43;;;;;;;2.80;2.10;;;;;;;32.81;26.26;99523.76;1707532;83;21491;-78